sensor_id;sensor_type;location;lat;lon;timestamp;P1;durP1;ratioP1;P2;durP2;ratioP2
56271;SDS011;42177;48.914;18.160;2023-02-28T00:03:13;13;;;8.4;;
56271;SDS011;42177;48.914;18.160;2023-02-28T00:08:13;13;;;8.4;;
56271;SDS011;42177;48.914;18.160;2023-02-28T00:13:13;15.4;;;9.3;;
56271;SDS011;42177;48.914;18.160;2023-02-28T00:18:13;15.4;;;9.3;;
56271;SDS011;42177;48.914;18.160;2023-02-28T00:23:13;15;;;9;;
56271;SDS011;42177;48.914;18.160;2023-02-28T00:28:13;15;;;9;;
56271;SDS011;42177;48.914;18.160;2023-02-28T00:33:13;14.6;;;9.8;;
56271;SDS011;42177;48.914;18.160;2023-02-28T00:38:13;14.6;;;9.8;;
56271;SDS011;42177;48.914;18.160;2023-02-28T00:43:13;16.8;;;10.6;;
56271;SDS011;42177;48.914;18.160;2023-02-28T00:48:13;16.8;;;10.6;;
56271;SDS011;42177;48.914;18.160;2023-02-28T00:53:13;16.9;;;10.5;;
56271;SDS011;42177;48.914;18.160;2023-02-28T00:58:13;16.9;;;10.5;;
56271;SDS011;42177;48.914;18.160;2023-02-28T01:03:13;17.1;;;10.2;;
56271;SDS011;42177;48.914;18.160;2023-02-28T01:08:13;17.1;;;10.2;;
56271;SDS011;42177;48.914;18.160;2023-02-28T01:13:13;17.5;;;10.3;;
56271;SDS011;42177;48.914;18.160;2023-02-28T01:18:13;17.5;;;10.3;;
56271;SDS011;42177;48.914;18.160;2023-02-28T01:23:13;18.9;;;11.5;;
56271;SDS011;42177;48.914;18.160;2023-02-28T01:28:13;18.9;;;11.5;;
56271;SDS011;42177;48.914;18.160;2023-02-28T01:33:13;19.7;;;12.3;;
56271;SDS011;42177;48.914;18.160;2023-02-28T01:38:13;19.7;;;12.3;;
56271;SDS011;42177;48.914;18.160;2023-02-28T01:43:16;18.8;;;12;;
56271;SDS011;42177;48.914;18.160;2023-02-28T01:48:13;18.8;;;12;;
56271;SDS011;42177;48.914;18.160;2023-02-28T01:53:14;18.6;;;11;;
56271;SDS011;42177;48.914;18.160;2023-02-28T01:58:13;18.6;;;11;;
56271;SDS011;42177;48.914;18.160;2023-02-28T02:03:14;19.7;;;11.9;;
56271;SDS011;42177;48.914;18.160;2023-02-28T02:08:16;19.7;;;11.9;;
56271;SDS011;42177;48.914;18.160;2023-02-28T02:13:19;19.9;;;12.4;;
56271;SDS011;42177;48.914;18.160;2023-02-28T02:18:16;19.9;;;12.4;;
56271;SDS011;42177;48.914;18.160;2023-02-28T02:23:50;19.9;;;12.2;;
56271;SDS011;42177;48.914;18.160;2023-02-28T02:28:22;19.9;;;12.2;;
56271;SDS011;42177;48.914;18.160;2023-02-28T02:33:22;19.9;;;12.2;;
56271;SDS011;42177;48.914;18.160;2023-02-28T02:38:15;19.9;;;12.2;;
56271;SDS011;42177;48.914;18.160;2023-02-28T02:43:15;18.6;;;11.6;;
56271;SDS011;42177;48.914;18.160;2023-02-28T02:48:16;18.6;;;11.6;;
56271;SDS011;42177;48.914;18.160;2023-02-28T02:53:13;21;;;12.5;;
56271;SDS011;42177;48.914;18.160;2023-02-28T02:58:15;21;;;12.5;;
56271;SDS011;42177;48.914;18.160;2023-02-28T03:03:13;20.8;;;12.1;;
56271;SDS011;42177;48.914;18.160;2023-02-28T03:08:13;20.8;;;12.1;;
56271;SDS011;42177;48.914;18.160;2023-02-28T03:13:19;22.7;;;12.8;;
56271;SDS011;42177;48.914;18.160;2023-02-28T03:18:14;22.7;;;12.8;;
56271;SDS011;42177;48.914;18.160;2023-02-28T03:23:15;21;;;12;;
56271;SDS011;42177;48.914;18.160;2023-02-28T03:28:14;21;;;12;;
56271;SDS011;42177;48.914;18.160;2023-02-28T03:33:14;19.2;;;11.2;;
56271;SDS011;42177;48.914;18.160;2023-02-28T03:38:14;19.2;;;11.2;;
56271;SDS011;42177;48.914;18.160;2023-02-28T03:43:15;20.2;;;12.2;;
56271;SDS011;42177;48.914;18.160;2023-02-28T03:48:15;20.2;;;12.2;;
56271;SDS011;42177;48.914;18.160;2023-02-28T03:53:15;21.1;;;12.1;;
56271;SDS011;42177;48.914;18.160;2023-02-28T03:58:15;21.1;;;12.1;;
56271;SDS011;42177;48.914;18.160;2023-02-28T04:03:13;18.9;;;12.2;;
56271;SDS011;42177;48.914;18.160;2023-02-28T04:08:13;18.9;;;12.2;;
56271;SDS011;42177;48.914;18.160;2023-02-28T04:13:13;19.1;;;11.3;;
56271;SDS011;42177;48.914;18.160;2023-02-28T04:18:13;19.1;;;11.3;;
56271;SDS011;42177;48.914;18.160;2023-02-28T04:23:13;19;;;11.7;;
56271;SDS011;42177;48.914;18.160;2023-02-28T04:28:13;19;;;11.7;;
56271;SDS011;42177;48.914;18.160;2023-02-28T04:33:13;19;;;12.6;;
56271;SDS011;42177;48.914;18.160;2023-02-28T04:38:13;19;;;12.6;;
56271;SDS011;42177;48.914;18.160;2023-02-28T04:43:13;18.6;;;11.9;;
56271;SDS011;42177;48.914;18.160;2023-02-28T04:48:13;18.6;;;11.9;;
56271;SDS011;42177;48.914;18.160;2023-02-28T04:53:13;21.2;;;13.6;;
56271;SDS011;42177;48.914;18.160;2023-02-28T04:58:13;21.2;;;13.6;;
56271;SDS011;42177;48.914;18.160;2023-02-28T05:03:13;22.1;;;14.1;;
56271;SDS011;42177;48.914;18.160;2023-02-28T05:08:13;22.1;;;14.1;;
56271;SDS011;42177;48.914;18.160;2023-02-28T05:13:13;25;;;14.3;;
56271;SDS011;42177;48.914;18.160;2023-02-28T05:18:13;25;;;14.3;;
56271;SDS011;42177;48.914;18.160;2023-02-28T05:23:13;23.4;;;13.1;;
56271;SDS011;42177;48.914;18.160;2023-02-28T05:28:13;23.4;;;13.1;;
56271;SDS011;42177;48.914;18.160;2023-02-28T05:33:13;22.7;;;12;;
56271;SDS011;42177;48.914;18.160;2023-02-28T05:38:13;22.7;;;12;;
56271;SDS011;42177;48.914;18.160;2023-02-28T05:43:13;15.8;;;9.5;;
56271;SDS011;42177;48.914;18.160;2023-02-28T05:48:13;15.8;;;9.5;;
56271;SDS011;42177;48.914;18.160;2023-02-28T05:53:13;22.5;;;12.4;;
56271;SDS011;42177;48.914;18.160;2023-02-28T05:58:13;22.5;;;12.4;;
56271;SDS011;42177;48.914;18.160;2023-02-28T06:03:13;30;;;15.4;;
56271;SDS011;42177;48.914;18.160;2023-02-28T06:08:13;30;;;15.4;;
56271;SDS011;42177;48.914;18.160;2023-02-28T06:13:13;22;;;14;;
56271;SDS011;42177;48.914;18.160;2023-02-28T06:18:13;22;;;14;;
56271;SDS011;42177;48.914;18.160;2023-02-28T06:23:13;20.7;;;12.2;;
56271;SDS011;42177;48.914;18.160;2023-02-28T06:28:13;20.7;;;12.2;;
56271;SDS011;42177;48.914;18.160;2023-02-28T06:33:13;23.2;;;14;;
56271;SDS011;42177;48.914;18.160;2023-02-28T06:38:13;23.2;;;14;;
56271;SDS011;42177;48.914;18.160;2023-02-28T06:43:13;25.2;;;15.1;;
56271;SDS011;42177;48.914;18.160;2023-02-28T06:48:13;25.2;;;15.1;;
56271;SDS011;42177;48.914;18.160;2023-02-28T06:53:13;24;;;15.1;;
56271;SDS011;42177;48.914;18.160;2023-02-28T06:58:13;24;;;15.1;;
56271;SDS011;42177;48.914;18.160;2023-02-28T07:03:13;23.7;;;14.1;;
56271;SDS011;42177;48.914;18.160;2023-02-28T07:08:13;23.7;;;14.1;;
56271;SDS011;42177;48.914;18.160;2023-02-28T07:13:13;27.7;;;15;;
56271;SDS011;42177;48.914;18.160;2023-02-28T07:18:13;27.7;;;15;;
56271;SDS011;42177;48.914;18.160;2023-02-28T07:23:13;24.5;;;14.8;;
56271;SDS011;42177;48.914;18.160;2023-02-28T07:28:13;24.5;;;14.8;;
56271;SDS011;42177;48.914;18.160;2023-02-28T07:33:13;31.8;;;16.6;;
56271;SDS011;42177;48.914;18.160;2023-02-28T07:38:13;31.8;;;16.6;;
56271;SDS011;42177;48.914;18.160;2023-02-28T07:43:13;35;;;19.1;;
56271;SDS011;42177;48.914;18.160;2023-02-28T07:48:13;35;;;19.1;;
56271;SDS011;42177;48.914;18.160;2023-02-28T07:53:13;29.3;;;16.1;;
56271;SDS011;42177;48.914;18.160;2023-02-28T07:58:13;29.3;;;16.1;;
56271;SDS011;42177;48.914;18.160;2023-02-28T08:03:13;22.3;;;14.2;;
56271;SDS011;42177;48.914;18.160;2023-02-28T08:08:13;22.3;;;14.2;;
56271;SDS011;42177;48.914;18.160;2023-02-28T08:13:13;19.2;;;12;;
56271;SDS011;42177;48.914;18.160;2023-02-28T08:18:13;19.2;;;12;;
56271;SDS011;42177;48.914;18.160;2023-02-28T08:23:13;16.2;;;9.9;;
56271;SDS011;42177;48.914;18.160;2023-02-28T08:28:13;16.2;;;9.9;;
56271;SDS011;42177;48.914;18.160;2023-02-28T08:33:13;17;;;10.5;;
56271;SDS011;42177;48.914;18.160;2023-02-28T08:38:13;17;;;10.5;;
56271;SDS011;42177;48.914;18.160;2023-02-28T08:43:13;18.5;;;10.8;;
56271;SDS011;42177;48.914;18.160;2023-02-28T08:48:13;18.5;;;10.8;;
56271;SDS011;42177;48.914;18.160;2023-02-28T08:53:13;17.4;;;11.6;;
56271;SDS011;42177;48.914;18.160;2023-02-28T08:58:13;17.4;;;11.6;;
56271;SDS011;42177;48.914;18.160;2023-02-28T09:03:13;20;;;12.2;;
56271;SDS011;42177;48.914;18.160;2023-02-28T09:08:13;20;;;12.2;;
56271;SDS011;42177;48.914;18.160;2023-02-28T09:13:13;18.2;;;11.5;;
56271;SDS011;42177;48.914;18.160;2023-02-28T09:18:13;18.2;;;11.5;;
56271;SDS011;42177;48.914;18.160;2023-02-28T09:23:13;17.1;;;10.3;;
56271;SDS011;42177;48.914;18.160;2023-02-28T09:28:13;17.1;;;10.3;;
56271;SDS011;42177;48.914;18.160;2023-02-28T09:33:13;17.8;;;10.3;;
56271;SDS011;42177;48.914;18.160;2023-02-28T09:38:13;17.8;;;10.3;;
56271;SDS011;42177;48.914;18.160;2023-02-28T09:43:14;14.6;;;9.4;;
56271;SDS011;42177;48.914;18.160;2023-02-28T09:48:14;14.6;;;9.4;;
56271;SDS011;42177;48.914;18.160;2023-02-28T09:53:14;14.6;;;9.6;;
56271;SDS011;42177;48.914;18.160;2023-02-28T09:58:15;14.6;;;9.6;;
56271;SDS011;42177;48.914;18.160;2023-02-28T10:03:19;15.4;;;9.7;;
56271;SDS011;42177;48.914;18.160;2023-02-28T10:08:14;15.4;;;9.7;;
56271;SDS011;42177;48.914;18.160;2023-02-28T10:13:16;14.5;;;9.3;;
56271;SDS011;42177;48.914;18.160;2023-02-28T10:18:14;14.5;;;9.3;;
56271;SDS011;42177;48.914;18.160;2023-02-28T10:23:14;15.8;;;9.2;;
56271;SDS011;42177;48.914;18.160;2023-02-28T10:28:14;15.8;;;9.2;;
56271;SDS011;42177;48.914;18.160;2023-02-28T10:33:17;18.3;;;9.8;;
56271;SDS011;42177;48.914;18.160;2023-02-28T10:38:15;18.3;;;9.8;;
56271;SDS011;42177;48.914;18.160;2023-02-28T10:43:18;15.9;;;9;;
56271;SDS011;42177;48.914;18.160;2023-02-28T10:48:26;15.9;;;9;;
56271;SDS011;42177;48.914;18.160;2023-02-28T10:53:16;14.5;;;8.5;;
56271;SDS011;42177;48.914;18.160;2023-02-28T10:58:20;14.5;;;8.5;;
56271;SDS011;42177;48.914;18.160;2023-02-28T11:03:22;14.7;;;9.1;;
56271;SDS011;42177;48.914;18.160;2023-02-28T11:08:14;14.7;;;9.1;;
56271;SDS011;42177;48.914;18.160;2023-02-28T11:13:16;16;;;7.6;;
56271;SDS011;42177;48.914;18.160;2023-02-28T11:18:19;16;;;7.6;;
56271;SDS011;42177;48.914;18.160;2023-02-28T11:23:13;11.7;;;7.3;;
56271;SDS011;42177;48.914;18.160;2023-02-28T11:28:23;11.7;;;7.3;;
56271;SDS011;42177;48.914;18.160;2023-02-28T11:33:30;11.1;;;7;;
56271;SDS011;42177;48.914;18.160;2023-02-28T11:38:13;11.1;;;7;;
56271;SDS011;42177;48.914;18.160;2023-02-28T11:43:18;12.6;;;7.4;;
56271;SDS011;42177;48.914;18.160;2023-02-28T11:48:16;12.6;;;7.4;;
56271;SDS011;42177;48.914;18.160;2023-02-28T11:53:16;14.1;;;8.1;;
56271;SDS011;42177;48.914;18.160;2023-02-28T11:58:17;14.1;;;8.1;;
56271;SDS011;42177;48.914;18.160;2023-02-28T12:03:16;13.5;;;8.7;;
56271;SDS011;42177;48.914;18.160;2023-02-28T12:08:18;13.5;;;8.7;;
56271;SDS011;42177;48.914;18.160;2023-02-28T12:13:16;13.4;;;8.2;;
56271;SDS011;42177;48.914;18.160;2023-02-28T12:18:17;13.4;;;8.2;;
56271;SDS011;42177;48.914;18.160;2023-02-28T12:23:19;12;;;8.3;;
56271;SDS011;42177;48.914;18.160;2023-02-28T12:28:14;12;;;8.3;;
56271;SDS011;42177;48.914;18.160;2023-02-28T12:33:14;11.7;;;8.4;;
56271;SDS011;42177;48.914;18.160;2023-02-28T12:38:14;11.7;;;8.4;;
56271;SDS011;42177;48.914;18.160;2023-02-28T12:43:14;14.6;;;8.7;;
56271;SDS011;42177;48.914;18.160;2023-02-28T12:48:14;14.6;;;8.7;;
56271;SDS011;42177;48.914;18.160;2023-02-28T12:53:15;11.9;;;8.2;;
56271;SDS011;42177;48.914;18.160;2023-02-28T12:58:14;11.9;;;8.2;;
56271;SDS011;42177;48.914;18.160;2023-02-28T13:03:18;13.1;;;9.2;;
56271;SDS011;42177;48.914;18.160;2023-02-28T13:08:20;13.1;;;9.2;;
56271;SDS011;42177;48.914;18.160;2023-02-28T13:13:14;13.7;;;9.2;;
56271;SDS011;42177;48.914;18.160;2023-02-28T13:18:28;13.7;;;9.2;;
56271;SDS011;42177;48.914;18.160;2023-02-28T13:23:35;12.8;;;8.6;;
56271;SDS011;42177;48.914;18.160;2023-02-28T13:28:13;12.8;;;8.6;;
56271;SDS011;42177;48.914;18.160;2023-02-28T13:33:30;14.1;;;8.8;;
56271;SDS011;42177;48.914;18.160;2023-02-28T13:38:15;14.1;;;8.8;;
56271;SDS011;42177;48.914;18.160;2023-02-28T13:43:13;11.9;;;8.1;;
56271;SDS011;42177;48.914;18.160;2023-02-28T13:48:15;11.9;;;8.1;;
56271;SDS011;42177;48.914;18.160;2023-02-28T13:53:24;10.6;;;7;;
56271;SDS011;42177;48.914;18.160;2023-02-28T13:58:22;10.6;;;7;;
56271;SDS011;42177;48.914;18.160;2023-02-28T14:03:18;9.6;;;7;;
56271;SDS011;42177;48.914;18.160;2023-02-28T14:08:14;9.6;;;7;;
56271;SDS011;42177;48.914;18.160;2023-02-28T14:13:36;11.9;;;7.8;;
56271;SDS011;42177;48.914;18.160;2023-02-28T14:18:16;11.9;;;7.8;;
56271;SDS011;42177;48.914;18.160;2023-02-28T14:23:16;13.2;;;8.9;;
56271;SDS011;42177;48.914;18.160;2023-02-28T14:28:14;13.2;;;8.9;;
56271;SDS011;42177;48.914;18.160;2023-02-28T14:33:16;11.4;;;7.9;;
56271;SDS011;42177;48.914;18.160;2023-02-28T14:38:14;11.4;;;7.9;;
56271;SDS011;42177;48.914;18.160;2023-02-28T14:43:18;10.6;;;7.6;;
56271;SDS011;42177;48.914;18.160;2023-02-28T14:48:14;10.6;;;7.6;;
56271;SDS011;42177;48.914;18.160;2023-02-28T14:53:15;10.6;;;6.9;;
56271;SDS011;42177;48.914;18.160;2023-02-28T15:03:17;10.4;;;7.1;;
56271;SDS011;42177;48.914;18.160;2023-02-28T15:08:14;10.4;;;7.1;;
56271;SDS011;42177;48.914;18.160;2023-02-28T15:13:14;11.8;;;6.6;;
56271;SDS011;42177;48.914;18.160;2023-02-28T15:18:17;11.8;;;6.6;;
56271;SDS011;42177;48.914;18.160;2023-02-28T15:23:13;9.5;;;6.2;;
56271;SDS011;42177;48.914;18.160;2023-02-28T15:28:16;9.5;;;6.2;;
56271;SDS011;42177;48.914;18.160;2023-02-28T15:33:18;10.2;;;6.3;;
56271;SDS011;42177;48.914;18.160;2023-02-28T15:38:15;10.2;;;6.3;;
56271;SDS011;42177;48.914;18.160;2023-02-28T15:43:14;11.5;;;5.8;;
56271;SDS011;42177;48.914;18.160;2023-02-28T15:48:15;11.5;;;5.8;;
56271;SDS011;42177;48.914;18.160;2023-02-28T15:53:15;10.6;;;6.6;;
56271;SDS011;42177;48.914;18.160;2023-02-28T15:58:13;10.6;;;6.6;;
56271;SDS011;42177;48.914;18.160;2023-02-28T16:03:34;10.5;;;6.4;;
56271;SDS011;42177;48.914;18.160;2023-02-28T16:08:14;10.5;;;6.4;;
56271;SDS011;42177;48.914;18.160;2023-02-28T16:13:13;20.5;;;12.8;;
56271;SDS011;42177;48.914;18.160;2023-02-28T16:18:13;20.5;;;12.8;;
56271;SDS011;42177;48.914;18.160;2023-02-28T16:23:13;24.3;;;7.7;;
56271;SDS011;42177;48.914;18.160;2023-02-28T16:28:15;24.3;;;7.7;;
56271;SDS011;42177;48.914;18.160;2023-02-28T16:33:13;21.7;;;9.7;;
56271;SDS011;42177;48.914;18.160;2023-02-28T16:38:13;21.7;;;9.7;;
56271;SDS011;42177;48.914;18.160;2023-02-28T16:43:15;19.8;;;11.6;;
56271;SDS011;42177;48.914;18.160;2023-02-28T16:48:14;19.8;;;11.6;;
56271;SDS011;42177;48.914;18.160;2023-02-28T16:53:13;20;;;10.9;;
56271;SDS011;42177;48.914;18.160;2023-02-28T16:58:14;20;;;10.9;;
56271;SDS011;42177;48.914;18.160;2023-02-28T17:03:18;18;;;10.5;;
56271;SDS011;42177;48.914;18.160;2023-02-28T17:08:13;18;;;10.5;;
56271;SDS011;42177;48.914;18.160;2023-02-28T17:13:13;15.8;;;10.8;;
56271;SDS011;42177;48.914;18.160;2023-02-28T17:18:13;15.8;;;10.8;;
56271;SDS011;42177;48.914;18.160;2023-02-28T17:23:13;18;;;9.9;;
56271;SDS011;42177;48.914;18.160;2023-02-28T17:28:13;18;;;9.9;;
56271;SDS011;42177;48.914;18.160;2023-02-28T17:33:13;15.2;;;9.5;;
56271;SDS011;42177;48.914;18.160;2023-02-28T17:38:14;15.2;;;9.5;;
56271;SDS011;42177;48.914;18.160;2023-02-28T17:43:13;20;;;12.9;;
56271;SDS011;42177;48.914;18.160;2023-02-28T17:48:13;20;;;12.9;;
56271;SDS011;42177;48.914;18.160;2023-02-28T17:53:13;29.8;;;15.7;;
56271;SDS011;42177;48.914;18.160;2023-02-28T17:58:13;29.8;;;15.7;;
56271;SDS011;42177;48.914;18.160;2023-02-28T18:03:13;21.8;;;13.1;;
56271;SDS011;42177;48.914;18.160;2023-02-28T18:08:13;21.8;;;13.1;;
56271;SDS011;42177;48.914;18.160;2023-02-28T18:13:13;22.5;;;14.3;;
56271;SDS011;42177;48.914;18.160;2023-02-28T18:18:13;22.5;;;14.3;;
56271;SDS011;42177;48.914;18.160;2023-02-28T18:23:13;24.4;;;15.1;;
56271;SDS011;42177;48.914;18.160;2023-02-28T18:28:13;24.4;;;15.1;;
56271;SDS011;42177;48.914;18.160;2023-02-28T18:33:13;27.9;;;17.3;;
56271;SDS011;42177;48.914;18.160;2023-02-28T18:38:14;27.9;;;17.3;;
56271;SDS011;42177;48.914;18.160;2023-02-28T18:43:13;29;;;18.1;;
56271;SDS011;42177;48.914;18.160;2023-02-28T18:48:13;29;;;18.1;;
56271;SDS011;42177;48.914;18.160;2023-02-28T18:53:13;25.3;;;16.2;;
56271;SDS011;42177;48.914;18.160;2023-02-28T18:58:13;25.3;;;16.2;;
56271;SDS011;42177;48.914;18.160;2023-02-28T19:03:13;22.5;;;15.3;;
56271;SDS011;42177;48.914;18.160;2023-02-28T19:08:13;22.5;;;15.3;;
56271;SDS011;42177;48.914;18.160;2023-02-28T19:13:13;40.2;;;23.9;;
56271;SDS011;42177;48.914;18.160;2023-02-28T19:18:13;40.2;;;23.9;;
56271;SDS011;42177;48.914;18.160;2023-02-28T19:23:13;37.1;;;24.1;;
56271;SDS011;42177;48.914;18.160;2023-02-28T19:28:13;37.1;;;24.1;;
56271;SDS011;42177;48.914;18.160;2023-02-28T19:33:13;22.6;;;15.2;;
56271;SDS011;42177;48.914;18.160;2023-02-28T19:38:13;22.6;;;15.2;;
56271;SDS011;42177;48.914;18.160;2023-02-28T19:43:13;241.5;;;152.1;;
56271;SDS011;42177;48.914;18.160;2023-02-28T19:48:13;241.5;;;152.1;;
56271;SDS011;42177;48.914;18.160;2023-02-28T19:53:13;30;;;18.2;;
56271;SDS011;42177;48.914;18.160;2023-02-28T19:58:13;30;;;18.2;;
56271;SDS011;42177;48.914;18.160;2023-02-28T20:03:13;39.7;;;24.5;;
56271;SDS011;42177;48.914;18.160;2023-02-28T20:08:13;39.7;;;24.5;;
56271;SDS011;42177;48.914;18.160;2023-02-28T20:13:13;28.2;;;17.5;;
56271;SDS011;42177;48.914;18.160;2023-02-28T20:18:13;28.2;;;17.5;;
56271;SDS011;42177;48.914;18.160;2023-02-28T20:23:13;30.2;;;17.4;;
56271;SDS011;42177;48.914;18.160;2023-02-28T20:28:13;30.2;;;17.4;;
56271;SDS011;42177;48.914;18.160;2023-02-28T20:33:14;33.6;;;18.4;;
56271;SDS011;42177;48.914;18.160;2023-02-28T20:38:13;33.6;;;18.4;;
56271;SDS011;42177;48.914;18.160;2023-02-28T20:43:13;26.2;;;15.8;;
56271;SDS011;42177;48.914;18.160;2023-02-28T20:48:13;26.2;;;15.8;;
56271;SDS011;42177;48.914;18.160;2023-02-28T20:53:13;26.4;;;16.2;;
56271;SDS011;42177;48.914;18.160;2023-02-28T20:58:13;26.4;;;16.2;;
56271;SDS011;42177;48.914;18.160;2023-02-28T21:03:13;24.1;;;15.1;;
56271;SDS011;42177;48.914;18.160;2023-02-28T21:08:13;24.1;;;15.1;;
56271;SDS011;42177;48.914;18.160;2023-02-28T21:13:13;24;;;15.4;;
56271;SDS011;42177;48.914;18.160;2023-02-28T21:18:13;24;;;15.4;;
56271;SDS011;42177;48.914;18.160;2023-02-28T21:23:13;25.1;;;16.3;;
56271;SDS011;42177;48.914;18.160;2023-02-28T21:28:14;25.1;;;16.3;;
56271;SDS011;42177;48.914;18.160;2023-02-28T21:33:13;26.3;;;15.6;;
56271;SDS011;42177;48.914;18.160;2023-02-28T21:38:13;26.3;;;15.6;;
56271;SDS011;42177;48.914;18.160;2023-02-28T21:43:13;23.8;;;15.9;;
56271;SDS011;42177;48.914;18.160;2023-02-28T21:48:13;23.8;;;15.9;;
56271;SDS011;42177;48.914;18.160;2023-02-28T21:53:13;29.8;;;18.9;;
56271;SDS011;42177;48.914;18.160;2023-02-28T21:58:13;29.8;;;18.9;;
56271;SDS011;42177;48.914;18.160;2023-02-28T22:03:13;34;;;22.7;;
56271;SDS011;42177;48.914;18.160;2023-02-28T22:08:13;34;;;22.7;;
56271;SDS011;42177;48.914;18.160;2023-02-28T22:13:13;41.9;;;26.3;;
56271;SDS011;42177;48.914;18.160;2023-02-28T22:18:13;41.9;;;26.3;;
56271;SDS011;42177;48.914;18.160;2023-02-28T22:23:13;46.1;;;27.8;;
56271;SDS011;42177;48.914;18.160;2023-02-28T22:28:13;46.1;;;27.8;;
56271;SDS011;42177;48.914;18.160;2023-02-28T22:33:13;53;;;34.9;;
56271;SDS011;42177;48.914;18.160;2023-02-28T22:38:13;53;;;34.9;;
56271;SDS011;42177;48.914;18.160;2023-02-28T22:43:13;48.5;;;30;;
56271;SDS011;42177;48.914;18.160;2023-02-28T22:48:13;48.5;;;30;;
56271;SDS011;42177;48.914;18.160;2023-02-28T22:53:13;53.7;;;32.8;;
56271;SDS011;42177;48.914;18.160;2023-02-28T22:58:13;53.7;;;32.8;;
56271;SDS011;42177;48.914;18.160;2023-02-28T23:03:13;48.3;;;31.6;;
56271;SDS011;42177;48.914;18.160;2023-02-28T23:08:13;48.3;;;31.6;;
56271;SDS011;42177;48.914;18.160;2023-02-28T23:13:13;47.9;;;29.8;;
56271;SDS011;42177;48.914;18.160;2023-02-28T23:18:13;47.9;;;29.8;;
56271;SDS011;42177;48.914;18.160;2023-02-28T23:23:13;51.7;;;31.1;;
56271;SDS011;42177;48.914;18.160;2023-02-28T23:28:13;51.7;;;31.1;;
56271;SDS011;42177;48.914;18.160;2023-02-28T23:33:13;51.5;;;30;;
56271;SDS011;42177;48.914;18.160;2023-02-28T23:38:13;51.5;;;30;;
56271;SDS011;42177;48.914;18.160;2023-02-28T23:43:13;50.8;;;32.3;;
56271;SDS011;42177;48.914;18.160;2023-02-28T23:48:13;50.8;;;32.3;;
56271;SDS011;42177;48.914;18.160;2023-02-28T23:53:13;47.8;;;30.2;;
56271;SDS011;42177;48.914;18.160;2023-02-28T23:58:13;47.8;;;30.2;;
